sensor_id;sensor_type;location;lat;lon;timestamp;temperature;humidity
49549;DHT22;35450;44.518;7.466;2022-11-25T00:00:45;10.00;69.40
49549;DHT22;35450;44.518;7.466;2022-11-25T00:03:50;10.00;69.40
49549;DHT22;35450;44.518;7.466;2022-11-25T00:06:54;10.00;68.90
49549;DHT22;35450;44.518;7.466;2022-11-25T00:09:58;9.90;69.10
49549;DHT22;35450;44.518;7.466;2022-11-25T00:13:02;10.00;71.00
49549;DHT22;35450;44.518;7.466;2022-11-25T00:16:09;10.00;70.60
49549;DHT22;35450;44.518;7.466;2022-11-25T00:19:13;10.00;73.90
49549;DHT22;35450;44.518;7.466;2022-11-25T00:22:17;9.90;71.00
49549;DHT22;35450;44.518;7.466;2022-11-25T00:25:21;9.90;70.20
49549;DHT22;35450;44.518;7.466;2022-11-25T00:28:26;9.90;71.20
49549;DHT22;35450;44.518;7.466;2022-11-25T00:31:33;9.90;69.70
49549;DHT22;35450;44.518;7.466;2022-11-25T00:34:37;9.90;68.50
49549;DHT22;35450;44.518;7.466;2022-11-25T00:37:41;9.90;72.00
49549;DHT22;35450;44.518;7.466;2022-11-25T00:40:45;9.70;70.60
49549;DHT22;35450;44.518;7.466;2022-11-25T00:44:10;9.70;69.30
49549;DHT22;35450;44.518;7.466;2022-11-25T00:47:33;9.80;73.60
49549;DHT22;35450;44.518;7.466;2022-11-25T00:50:38;9.70;72.70
49549;DHT22;35450;44.518;7.466;2022-11-25T00:53:42;9.80;72.00
49549;DHT22;35450;44.518;7.466;2022-11-25T00:56:46;9.80;69.40
49549;DHT22;35450;44.518;7.466;2022-11-25T00:59:50;9.70;70.40
49549;DHT22;35450;44.518;7.466;2022-11-25T01:02:54;9.70;71.60
49549;DHT22;35450;44.518;7.466;2022-11-25T01:06:06;9.70;70.80
49549;DHT22;35450;44.518;7.466;2022-11-25T01:09:12;9.70;70.00
49549;DHT22;35450;44.518;7.466;2022-11-25T01:12:16;9.70;69.10
49549;DHT22;35450;44.518;7.466;2022-11-25T01:15:20;9.70;70.60
49549;DHT22;35450;44.518;7.466;2022-11-25T01:18:24;9.60;70.90
49549;DHT22;35450;44.518;7.466;2022-11-25T01:21:32;9.50;70.20
49549;DHT22;35450;44.518;7.466;2022-11-25T01:24:36;9.60;70.10
49549;DHT22;35450;44.518;7.466;2022-11-25T01:27:40;9.60;68.40
49549;DHT22;35450;44.518;7.466;2022-11-25T01:30:45;9.50;70.60
49549;DHT22;35450;44.518;7.466;2022-11-25T01:33:59;9.40;68.40
49549;DHT22;35450;44.518;7.466;2022-11-25T01:37:02;9.60;69.60
49549;DHT22;35450;44.518;7.466;2022-11-25T01:40:07;9.50;69.10
49549;DHT22;35450;44.518;7.466;2022-11-25T01:43:14;9.50;70.90
49549;DHT22;35450;44.518;7.466;2022-11-25T01:46:23;9.40;69.90
49549;DHT22;35450;44.518;7.466;2022-11-25T01:49:30;9.30;72.20
49549;DHT22;35450;44.518;7.466;2022-11-25T01:52:38;9.30;71.60
49549;DHT22;35450;44.518;7.466;2022-11-25T01:55:57;9.40;70.00
49549;DHT22;35450;44.518;7.466;2022-11-25T01:59:02;9.30;70.60
49549;DHT22;35450;44.518;7.466;2022-11-25T02:02:06;9.30;69.40
49549;DHT22;35450;44.518;7.466;2022-11-25T02:05:13;9.40;69.30
49549;DHT22;35450;44.518;7.466;2022-11-25T02:08:22;9.40;69.10
49549;DHT22;35450;44.518;7.466;2022-11-25T02:11:28;9.40;68.30
49549;DHT22;35450;44.518;7.466;2022-11-25T02:14:33;9.40;68.30
49549;DHT22;35450;44.518;7.466;2022-11-25T02:17:38;9.40;68.90
49549;DHT22;35450;44.518;7.466;2022-11-25T02:20:41;9.40;70.00
49549;DHT22;35450;44.518;7.466;2022-11-25T02:23:47;9.30;68.30
49549;DHT22;35450;44.518;7.466;2022-11-25T02:26:53;9.30;70.40
49549;DHT22;35450;44.518;7.466;2022-11-25T02:29:58;9.20;70.90
49549;DHT22;35450;44.518;7.466;2022-11-25T02:33:02;9.10;70.70
49549;DHT22;35450;44.518;7.466;2022-11-25T02:36:12;9.10;70.80
49549;DHT22;35450;44.518;7.466;2022-11-25T02:39:17;9.00;69.90
49549;DHT22;35450;44.518;7.466;2022-11-25T02:42:23;9.00;69.30
49549;DHT22;35450;44.518;7.466;2022-11-25T02:45:41;9.00;69.50
49549;DHT22;35450;44.518;7.466;2022-11-25T02:48:46;8.90;69.30
49549;DHT22;35450;44.518;7.466;2022-11-25T02:51:50;8.90;69.50
49549;DHT22;35450;44.518;7.466;2022-11-25T02:54:54;8.90;69.40
49549;DHT22;35450;44.518;7.466;2022-11-25T02:57:58;8.90;69.80
49549;DHT22;35450;44.518;7.466;2022-11-25T03:01:02;8.90;69.70
49549;DHT22;35450;44.518;7.466;2022-11-25T03:04:07;8.90;69.00
49549;DHT22;35450;44.518;7.466;2022-11-25T03:07:12;8.80;69.20
49549;DHT22;35450;44.518;7.466;2022-11-25T03:10:16;8.80;69.60
49549;DHT22;35450;44.518;7.466;2022-11-25T03:13:21;8.70;70.30
49549;DHT22;35450;44.518;7.466;2022-11-25T03:16:25;8.70;70.10
49549;DHT22;35450;44.518;7.466;2022-11-25T03:19:29;8.80;69.90
49549;DHT22;35450;44.518;7.466;2022-11-25T03:22:33;8.90;69.40
49549;DHT22;35450;44.518;7.466;2022-11-25T03:25:40;8.90;69.20
49549;DHT22;35450;44.518;7.466;2022-11-25T03:28:46;8.90;68.30
49549;DHT22;35450;44.518;7.466;2022-11-25T03:31:50;8.80;69.20
49549;DHT22;35450;44.518;7.466;2022-11-25T03:34:54;8.80;68.90
49549;DHT22;35450;44.518;7.466;2022-11-25T03:37:58;8.90;69.00
49549;DHT22;35450;44.518;7.466;2022-11-25T03:41:02;8.80;70.00
49549;DHT22;35450;44.518;7.466;2022-11-25T03:44:06;8.70;70.70
49549;DHT22;35450;44.518;7.466;2022-11-25T03:47:11;8.60;72.10
49549;DHT22;35450;44.518;7.466;2022-11-25T03:50:15;8.70;72.20
49549;DHT22;35450;44.518;7.466;2022-11-25T03:53:21;8.50;72.80
49549;DHT22;35450;44.518;7.466;2022-11-25T03:56:25;8.50;73.80
49549;DHT22;35450;44.518;7.466;2022-11-25T03:59:29;8.30;74.90
49549;DHT22;35450;44.518;7.466;2022-11-25T04:02:33;8.20;75.20
49549;DHT22;35450;44.518;7.466;2022-11-25T04:05:36;8.20;74.50
49549;DHT22;35450;44.518;7.466;2022-11-25T04:08:44;8.20;75.10
49549;DHT22;35450;44.518;7.466;2022-11-25T04:11:47;8.20;73.10
49549;DHT22;35450;44.518;7.466;2022-11-25T04:15:20;8.10;73.10
49549;DHT22;35450;44.518;7.466;2022-11-25T04:18:30;8.10;71.90
49549;DHT22;35450;44.518;7.466;2022-11-25T04:21:36;8.10;71.70
49549;DHT22;35450;44.518;7.466;2022-11-25T04:24:40;8.10;71.20
49549;DHT22;35450;44.518;7.466;2022-11-25T04:27:44;8.30;70.90
49549;DHT22;35450;44.518;7.466;2022-11-25T04:30:49;8.10;73.10
49549;DHT22;35450;44.518;7.466;2022-11-25T04:33:54;8.10;72.40
49549;DHT22;35450;44.518;7.466;2022-11-25T04:37:00;8.20;70.60
49549;DHT22;35450;44.518;7.466;2022-11-25T04:40:06;8.20;72.60
49549;DHT22;35450;44.518;7.466;2022-11-25T04:43:11;8.00;74.10
49549;DHT22;35450;44.518;7.466;2022-11-25T04:46:23;8.10;74.70
49549;DHT22;35450;44.518;7.466;2022-11-25T04:49:28;8.00;73.30
49549;DHT22;35450;44.518;7.466;2022-11-25T04:52:32;8.00;71.70
49549;DHT22;35450;44.518;7.466;2022-11-25T04:55:36;8.00;71.60
49549;DHT22;35450;44.518;7.466;2022-11-25T04:58:45;8.10;71.00
49549;DHT22;35450;44.518;7.466;2022-11-25T05:02:21;8.20;70.70
49549;DHT22;35450;44.518;7.466;2022-11-25T05:05:31;8.20;70.50
49549;DHT22;35450;44.518;7.466;2022-11-25T05:08:36;8.20;70.40
49549;DHT22;35450;44.518;7.466;2022-11-25T05:11:39;8.20;70.70
49549;DHT22;35450;44.518;7.466;2022-11-25T05:14:44;8.20;70.80
49549;DHT22;35450;44.518;7.466;2022-11-25T05:17:48;8.30;70.80
49549;DHT22;35450;44.518;7.466;2022-11-25T05:21:00;8.10;73.10
49549;DHT22;35450;44.518;7.466;2022-11-25T05:24:06;8.00;74.50
49549;DHT22;35450;44.518;7.466;2022-11-25T05:27:11;8.00;74.00
49549;DHT22;35450;44.518;7.466;2022-11-25T05:30:15;8.00;74.50
49549;DHT22;35450;44.518;7.466;2022-11-25T05:33:19;7.90;73.80
49549;DHT22;35450;44.518;7.466;2022-11-25T05:36:24;7.80;72.90
49549;DHT22;35450;44.518;7.466;2022-11-25T05:39:28;7.80;72.40
49549;DHT22;35450;44.518;7.466;2022-11-25T05:42:51;7.80;72.00
49549;DHT22;35450;44.518;7.466;2022-11-25T05:45:56;7.90;71.40
49549;DHT22;35450;44.518;7.466;2022-11-25T05:49:02;8.00;71.20
49549;DHT22;35450;44.518;7.466;2022-11-25T05:52:05;8.10;71.30
49549;DHT22;35450;44.518;7.466;2022-11-25T05:55:16;8.00;71.30
49549;DHT22;35450;44.518;7.466;2022-11-25T05:58:23;8.10;71.10
49549;DHT22;35450;44.518;7.466;2022-11-25T06:01:31;8.10;71.10
49549;DHT22;35450;44.518;7.466;2022-11-25T06:04:35;8.10;72.40
49549;DHT22;35450;44.518;7.466;2022-11-25T06:07:40;7.90;73.80
49549;DHT22;35450;44.518;7.466;2022-11-25T06:10:44;7.90;74.80
49549;DHT22;35450;44.518;7.466;2022-11-25T06:13:48;7.80;74.70
49549;DHT22;35450;44.518;7.466;2022-11-25T06:16:52;7.80;74.50
49549;DHT22;35450;44.518;7.466;2022-11-25T06:20:06;7.80;74.90
49549;DHT22;35450;44.518;7.466;2022-11-25T06:23:10;7.80;74.50
49549;DHT22;35450;44.518;7.466;2022-11-25T06:26:19;7.70;74.10
49549;DHT22;35450;44.518;7.466;2022-11-25T06:29:24;7.70;73.90
49549;DHT22;35450;44.518;7.466;2022-11-25T06:32:29;7.70;74.40
49549;DHT22;35450;44.518;7.466;2022-11-25T06:35:40;7.70;74.60
49549;DHT22;35450;44.518;7.466;2022-11-25T06:38:51;7.80;74.30
49549;DHT22;35450;44.518;7.466;2022-11-25T06:41:55;7.90;73.50
49549;DHT22;35450;44.518;7.466;2022-11-25T06:44:59;8.00;73.60
49549;DHT22;35450;44.518;7.466;2022-11-25T06:48:03;8.00;73.40
49549;DHT22;35450;44.518;7.466;2022-11-25T06:51:09;7.90;73.20
49549;DHT22;35450;44.518;7.466;2022-11-25T06:54:14;8.00;73.40
49549;DHT22;35450;44.518;7.466;2022-11-25T06:57:18;8.00;74.20
49549;DHT22;35450;44.518;7.466;2022-11-25T07:00:22;8.00;74.70
49549;DHT22;35450;44.518;7.466;2022-11-25T07:03:26;8.00;73.60
49549;DHT22;35450;44.518;7.466;2022-11-25T07:06:31;7.80;75.60
49549;DHT22;35450;44.518;7.466;2022-11-25T07:09:36;7.70;76.10
49549;DHT22;35450;44.518;7.466;2022-11-25T07:12:40;7.60;76.40
49549;DHT22;35450;44.518;7.466;2022-11-25T07:15:44;7.60;76.60
49549;DHT22;35450;44.518;7.466;2022-11-25T07:18:48;7.70;75.30
49549;DHT22;35450;44.518;7.466;2022-11-25T07:21:52;7.70;74.20
49549;DHT22;35450;44.518;7.466;2022-11-25T07:24:56;7.70;75.50
49549;DHT22;35450;44.518;7.466;2022-11-25T07:28:00;7.70;75.40
49549;DHT22;35450;44.518;7.466;2022-11-25T07:31:08;7.70;75.80
49549;DHT22;35450;44.518;7.466;2022-11-25T07:34:18;7.70;75.80
49549;DHT22;35450;44.518;7.466;2022-11-25T07:37:23;7.90;75.10
49549;DHT22;35450;44.518;7.466;2022-11-25T07:40:27;8.00;74.00
49549;DHT22;35450;44.518;7.466;2022-11-25T07:43:31;8.10;74.30
49549;DHT22;35450;44.518;7.466;2022-11-25T07:46:39;8.10;75.40
49549;DHT22;35450;44.518;7.466;2022-11-25T07:49:44;8.20;74.70
49549;DHT22;35450;44.518;7.466;2022-11-25T07:52:48;8.30;75.50
49549;DHT22;35450;44.518;7.466;2022-11-25T07:55:52;8.20;75.20
49549;DHT22;35450;44.518;7.466;2022-11-25T07:58:56;8.30;75.50
49549;DHT22;35450;44.518;7.466;2022-11-25T08:02:00;8.30;74.30
49549;DHT22;35450;44.518;7.466;2022-11-25T08:05:04;8.40;73.80
49549;DHT22;35450;44.518;7.466;2022-11-25T08:08:08;8.40;77.50
49549;DHT22;35450;44.518;7.466;2022-11-25T08:11:18;8.40;78.00
49549;DHT22;35450;44.518;7.466;2022-11-25T08:14:23;8.50;76.50
49549;DHT22;35450;44.518;7.466;2022-11-25T08:17:28;8.50;75.80
49549;DHT22;35450;44.518;7.466;2022-11-25T08:20:32;8.50;74.10
49549;DHT22;35450;44.518;7.466;2022-11-25T08:23:37;8.50;74.10
49549;DHT22;35450;44.518;7.466;2022-11-25T08:26:41;8.50;76.40
49549;DHT22;35450;44.518;7.466;2022-11-25T08:29:47;8.50;76.10
49549;DHT22;35450;44.518;7.466;2022-11-25T08:33:01;8.60;76.50
49549;DHT22;35450;44.518;7.466;2022-11-25T08:36:10;8.70;76.90
49549;DHT22;35450;44.518;7.466;2022-11-25T08:39:19;8.70;77.50
49549;DHT22;35450;44.518;7.466;2022-11-25T08:42:24;8.70;77.10
49549;DHT22;35450;44.518;7.466;2022-11-25T08:45:28;8.70;75.70
49549;DHT22;35450;44.518;7.466;2022-11-25T08:48:32;8.80;75.50
49549;DHT22;35450;44.518;7.466;2022-11-25T08:51:37;8.80;74.80
49549;DHT22;35450;44.518;7.466;2022-11-25T08:54:42;8.80;73.70
49549;DHT22;35450;44.518;7.466;2022-11-25T08:57:46;8.80;73.40
49549;DHT22;35450;44.518;7.466;2022-11-25T09:00:50;8.80;72.10
49549;DHT22;35450;44.518;7.466;2022-11-25T09:03:55;8.90;71.70
49549;DHT22;35450;44.518;7.466;2022-11-25T09:07:00;9.00;72.00
49549;DHT22;35450;44.518;7.466;2022-11-25T09:10:05;9.10;71.50
49549;DHT22;35450;44.518;7.466;2022-11-25T09:13:10;9.10;71.40
49549;DHT22;35450;44.518;7.466;2022-11-25T09:16:14;9.20;71.10
49549;DHT22;35450;44.518;7.466;2022-11-25T09:19:19;9.20;71.10
49549;DHT22;35450;44.518;7.466;2022-11-25T09:22:23;9.30;71.60
49549;DHT22;35450;44.518;7.466;2022-11-25T09:25:28;9.30;72.30
49549;DHT22;35450;44.518;7.466;2022-11-25T09:28:32;9.30;72.50
49549;DHT22;35450;44.518;7.466;2022-11-25T09:31:36;9.30;72.70
49549;DHT22;35450;44.518;7.466;2022-11-25T09:34:41;9.40;72.80
49549;DHT22;35450;44.518;7.466;2022-11-25T09:37:45;9.40;72.80
49549;DHT22;35450;44.518;7.466;2022-11-25T09:41:09;9.40;73.10
49549;DHT22;35450;44.518;7.466;2022-11-25T09:44:27;9.50;73.00
49549;DHT22;35450;44.518;7.466;2022-11-25T09:54:49;9.60;72.30
49549;DHT22;35450;44.518;7.466;2022-11-25T09:58:31;9.60;71.90
49549;DHT22;35450;44.518;7.466;2022-11-25T10:01:48;9.70;71.80
49549;DHT22;35450;44.518;7.466;2022-11-25T10:08:17;9.70;71.50
49549;DHT22;35450;44.518;7.466;2022-11-25T10:14:48;9.80;72.30
49549;DHT22;35450;44.518;7.466;2022-11-25T10:18:00;9.90;72.40
49549;DHT22;35450;44.518;7.466;2022-11-25T10:21:08;9.80;72.20
49549;DHT22;35450;44.518;7.466;2022-11-25T10:24:16;9.90;72.10
49549;DHT22;35450;44.518;7.466;2022-11-25T10:27:27;9.90;70.90
49549;DHT22;35450;44.518;7.466;2022-11-25T10:30:43;10.00;70.60
49549;DHT22;35450;44.518;7.466;2022-11-25T10:33:57;10.00;70.80
49549;DHT22;35450;44.518;7.466;2022-11-25T10:37:08;10.00;71.20
49549;DHT22;35450;44.518;7.466;2022-11-25T10:40:16;10.00;71.00
49549;DHT22;35450;44.518;7.466;2022-11-25T10:43:21;10.00;71.10
49549;DHT22;35450;44.518;7.466;2022-11-25T10:46:45;10.10;71.00
49549;DHT22;35450;44.518;7.466;2022-11-25T10:50:11;10.10;71.00
49549;DHT22;35450;44.518;7.466;2022-11-25T10:53:23;10.10;71.10
49549;DHT22;35450;44.518;7.466;2022-11-25T10:56:28;10.10;71.50
49549;DHT22;35450;44.518;7.466;2022-11-25T10:59:35;10.10;71.20
49549;DHT22;35450;44.518;7.466;2022-11-25T11:02:39;10.10;70.70
49549;DHT22;35450;44.518;7.466;2022-11-25T11:05:47;10.20;70.80
49549;DHT22;35450;44.518;7.466;2022-11-25T11:08:51;10.30;71.30
49549;DHT22;35450;44.518;7.466;2022-11-25T11:11:56;10.30;71.10
49549;DHT22;35450;44.518;7.466;2022-11-25T11:21:41;10.40;74.90
49549;DHT22;35450;44.518;7.466;2022-11-25T11:24:45;10.40;74.80
49549;DHT22;35450;44.518;7.466;2022-11-25T11:27:50;10.40;74.50
49549;DHT22;35450;44.518;7.466;2022-11-25T11:31:42;10.50;74.70
49549;DHT22;35450;44.518;7.466;2022-11-25T11:40:48;10.60;74.80
49549;DHT22;35450;44.518;7.466;2022-11-25T11:56:54;10.60;76.90
49549;DHT22;35450;44.518;7.466;2022-11-25T12:00:05;10.60;76.30
49549;DHT22;35450;44.518;7.466;2022-11-25T12:03:20;10.60;77.00
49549;DHT22;35450;44.518;7.466;2022-11-25T12:06:28;10.60;77.10
49549;DHT22;35450;44.518;7.466;2022-11-25T12:09:42;10.60;76.70
49549;DHT22;35450;44.518;7.466;2022-11-25T12:16:19;10.60;77.60
49549;DHT22;35450;44.518;7.466;2022-11-25T12:26:29;10.60;76.70
49549;DHT22;35450;44.518;7.466;2022-11-25T12:29:47;10.60;75.10
49549;DHT22;35450;44.518;7.466;2022-11-25T12:39:42;10.70;76.00
49549;DHT22;35450;44.518;7.466;2022-11-25T12:42:48;10.70;75.10
49549;DHT22;35450;44.518;7.466;2022-11-25T12:49:31;10.70;75.70
49549;DHT22;35450;44.518;7.466;2022-11-25T12:55:45;10.80;75.00
49549;DHT22;35450;44.518;7.466;2022-11-25T13:02:50;10.80;76.40
49549;DHT22;35450;44.518;7.466;2022-11-25T13:13:10;10.80;75.10
49549;DHT22;35450;44.518;7.466;2022-11-25T13:16:16;10.90;74.90
49549;DHT22;35450;44.518;7.466;2022-11-25T13:19:22;10.90;74.60
49549;DHT22;35450;44.518;7.466;2022-11-25T13:22:26;10.90;74.80
49549;DHT22;35450;44.518;7.466;2022-11-25T13:25:33;10.90;74.90
49549;DHT22;35450;44.518;7.466;2022-11-25T13:28:37;11.00;74.70
49549;DHT22;35450;44.518;7.466;2022-11-25T13:38:57;11.00;74.90
49549;DHT22;35450;44.518;7.466;2022-11-25T13:45:37;11.00;75.00
49549;DHT22;35450;44.518;7.466;2022-11-25T13:48:43;11.10;74.60
49549;DHT22;35450;44.518;7.466;2022-11-25T13:51:52;11.10;74.50
49549;DHT22;35450;44.518;7.466;2022-11-25T13:54:57;11.20;74.40
49549;DHT22;35450;44.518;7.466;2022-11-25T14:01:22;11.30;74.70
49549;DHT22;35450;44.518;7.466;2022-11-25T14:12:48;11.40;76.50
49549;DHT22;35450;44.518;7.466;2022-11-25T14:31:42;11.50;78.10
49549;DHT22;35450;44.518;7.466;2022-11-25T14:35:13;11.50;78.60
49549;DHT22;35450;44.518;7.466;2022-11-25T14:42:02;11.60;78.70
49549;DHT22;35450;44.518;7.466;2022-11-25T14:45:28;11.50;79.20
49549;DHT22;35450;44.518;7.466;2022-11-25T14:48:33;11.50;79.00
49549;DHT22;35450;44.518;7.466;2022-11-25T14:51:37;11.50;79.30
49549;DHT22;35450;44.518;7.466;2022-11-25T14:54:43;11.50;79.70
49549;DHT22;35450;44.518;7.466;2022-11-25T14:57:47;11.50;80.00
49549;DHT22;35450;44.518;7.466;2022-11-25T15:00:59;11.50;80.00
49549;DHT22;35450;44.518;7.466;2022-11-25T15:04:05;11.60;80.10
49549;DHT22;35450;44.518;7.466;2022-11-25T15:07:18;11.60;80.70
49549;DHT22;35450;44.518;7.466;2022-11-25T15:13:52;11.50;81.80
49549;DHT22;35450;44.518;7.466;2022-11-25T15:16:58;11.40;82.10
49549;DHT22;35450;44.518;7.466;2022-11-25T15:20:12;11.30;81.80
49549;DHT22;35450;44.518;7.466;2022-11-25T15:23:25;11.20;82.20
49549;DHT22;35450;44.518;7.466;2022-11-25T15:26:31;11.00;83.00
49549;DHT22;35450;44.518;7.466;2022-11-25T15:29:40;10.80;83.30
49549;DHT22;35450;44.518;7.466;2022-11-25T15:32:45;10.80;84.10
49549;DHT22;35450;44.518;7.466;2022-11-25T15:35:49;10.70;83.70
49549;DHT22;35450;44.518;7.466;2022-11-25T15:38:54;10.70;83.70
49549;DHT22;35450;44.518;7.466;2022-11-25T15:42:24;10.60;83.20
49549;DHT22;35450;44.518;7.466;2022-11-25T15:45:53;10.50;83.20
49549;DHT22;35450;44.518;7.466;2022-11-25T15:48:59;10.40;83.70
49549;DHT22;35450;44.518;7.466;2022-11-25T15:52:07;10.40;84.00
49549;DHT22;35450;44.518;7.466;2022-11-25T15:58:35;10.30;84.10
49549;DHT22;35450;44.518;7.466;2022-11-25T16:01:39;10.20;84.20
49549;DHT22;35450;44.518;7.466;2022-11-25T16:04:44;10.20;84.20
49549;DHT22;35450;44.518;7.466;2022-11-25T16:10:57;10.10;84.70
49549;DHT22;35450;44.518;7.466;2022-11-25T16:14:25;10.00;84.80
49549;DHT22;35450;44.518;7.466;2022-11-25T16:17:29;10.00;84.80
49549;DHT22;35450;44.518;7.466;2022-11-25T16:20:34;10.00;85.20
49549;DHT22;35450;44.518;7.466;2022-11-25T16:23:42;9.90;85.40
49549;DHT22;35450;44.518;7.466;2022-11-25T16:27:20;9.80;85.70
49549;DHT22;35450;44.518;7.466;2022-11-25T16:30:18;9.70;85.90
49549;DHT22;35450;44.518;7.466;2022-11-25T16:33:23;9.60;86.20
49549;DHT22;35450;44.518;7.466;2022-11-25T16:36:28;9.70;86.20
49549;DHT22;35450;44.518;7.466;2022-11-25T16:39:32;9.70;86.20
49549;DHT22;35450;44.518;7.466;2022-11-25T16:42:37;9.70;86.30
49549;DHT22;35450;44.518;7.466;2022-11-25T16:45:41;9.70;86.60
49549;DHT22;35450;44.518;7.466;2022-11-25T16:48:45;9.60;87.20
49549;DHT22;35450;44.518;7.466;2022-11-25T16:51:49;9.60;87.40
49549;DHT22;35450;44.518;7.466;2022-11-25T16:54:53;9.40;87.40
49549;DHT22;35450;44.518;7.466;2022-11-25T16:57:58;9.50;87.70
49549;DHT22;35450;44.518;7.466;2022-11-25T17:01:02;9.50;87.50
49549;DHT22;35450;44.518;7.466;2022-11-25T17:04:12;9.50;87.50
49549;DHT22;35450;44.518;7.466;2022-11-25T17:07:17;9.50;87.30
49549;DHT22;35450;44.518;7.466;2022-11-25T17:10:21;9.40;87.40
49549;DHT22;35450;44.518;7.466;2022-11-25T17:13:25;9.30;87.70
49549;DHT22;35450;44.518;7.466;2022-11-25T17:16:29;9.40;87.70
49549;DHT22;35450;44.518;7.466;2022-11-25T17:19:33;9.40;87.70
49549;DHT22;35450;44.518;7.466;2022-11-25T17:22:37;9.40;87.60
49549;DHT22;35450;44.518;7.466;2022-11-25T17:25:46;9.40;87.80
49549;DHT22;35450;44.518;7.466;2022-11-25T17:28:57;9.50;88.00
49549;DHT22;35450;44.518;7.466;2022-11-25T17:32:02;9.30;88.30
49549;DHT22;35450;44.518;7.466;2022-11-25T17:35:17;9.30;88.70
49549;DHT22;35450;44.518;7.466;2022-11-25T17:38:22;9.20;88.90
49549;DHT22;35450;44.518;7.466;2022-11-25T17:41:27;9.20;88.70
49549;DHT22;35450;44.518;7.466;2022-11-25T17:44:32;9.20;88.60
49549;DHT22;35450;44.518;7.466;2022-11-25T17:47:36;9.20;89.10
49549;DHT22;35450;44.518;7.466;2022-11-25T17:50:40;9.20;89.10
49549;DHT22;35450;44.518;7.466;2022-11-25T17:53:44;9.10;89.40
49549;DHT22;35450;44.518;7.466;2022-11-25T17:56:50;9.10;89.80
49549;DHT22;35450;44.518;7.466;2022-11-25T17:59:54;9.00;90.10
49549;DHT22;35450;44.518;7.466;2022-11-25T18:02:58;9.00;90.40
49549;DHT22;35450;44.518;7.466;2022-11-25T18:06:02;9.00;90.30
49549;DHT22;35450;44.518;7.466;2022-11-25T18:09:07;8.90;90.60
49549;DHT22;35450;44.518;7.466;2022-11-25T18:12:18;9.00;91.00
49549;DHT22;35450;44.518;7.466;2022-11-25T18:15:28;8.90;90.90
49549;DHT22;35450;44.518;7.466;2022-11-25T18:18:33;9.00;90.90
49549;DHT22;35450;44.518;7.466;2022-11-25T18:21:37;8.90;90.90
49549;DHT22;35450;44.518;7.466;2022-11-25T18:24:41;8.90;90.80
49549;DHT22;35450;44.518;7.466;2022-11-25T18:27:46;9.00;90.70
49549;DHT22;35450;44.518;7.466;2022-11-25T18:30:51;8.90;90.80
49549;DHT22;35450;44.518;7.466;2022-11-25T18:33:57;8.90;91.00
49549;DHT22;35450;44.518;7.466;2022-11-25T18:37:01;8.90;91.00
49549;DHT22;35450;44.518;7.466;2022-11-25T18:40:06;8.90;91.20
49549;DHT22;35450;44.518;7.466;2022-11-25T18:43:16;8.90;91.00
49549;DHT22;35450;44.518;7.466;2022-11-25T18:46:20;8.90;91.20
49549;DHT22;35450;44.518;7.466;2022-11-25T18:49:24;9.00;91.10
49549;DHT22;35450;44.518;7.466;2022-11-25T18:52:28;9.00;90.80
49549;DHT22;35450;44.518;7.466;2022-11-25T18:55:32;8.90;90.80
49549;DHT22;35450;44.518;7.466;2022-11-25T18:58:36;8.80;91.00
49549;DHT22;35450;44.518;7.466;2022-11-25T19:01:40;8.80;91.20
49549;DHT22;35450;44.518;7.466;2022-11-25T19:04:44;8.80;90.80
49549;DHT22;35450;44.518;7.466;2022-11-25T19:07:50;8.80;90.90
49549;DHT22;35450;44.518;7.466;2022-11-25T19:10:58;8.80;90.90
49549;DHT22;35450;44.518;7.466;2022-11-25T19:14:07;8.80;90.60
49549;DHT22;35450;44.518;7.466;2022-11-25T19:17:20;8.70;91.00
49549;DHT22;35450;44.518;7.466;2022-11-25T19:20:27;8.70;91.00
49549;DHT22;35450;44.518;7.466;2022-11-25T19:23:32;8.60;91.10
49549;DHT22;35450;44.518;7.466;2022-11-25T19:26:44;8.60;91.30
49549;DHT22;35450;44.518;7.466;2022-11-25T19:29:49;8.60;91.50
49549;DHT22;35450;44.518;7.466;2022-11-25T19:32:56;8.70;91.20
49549;DHT22;35450;44.518;7.466;2022-11-25T19:36:00;8.70;90.80
49549;DHT22;35450;44.518;7.466;2022-11-25T19:39:14;8.60;90.90
49549;DHT22;35450;44.518;7.466;2022-11-25T19:42:19;8.70;91.00
49549;DHT22;35450;44.518;7.466;2022-11-25T19:45:23;8.70;90.90
49549;DHT22;35450;44.518;7.466;2022-11-25T19:48:28;8.60;90.80
49549;DHT22;35450;44.518;7.466;2022-11-25T19:51:37;8.60;90.40
49549;DHT22;35450;44.518;7.466;2022-11-25T19:54:42;8.50;90.30
49549;DHT22;35450;44.518;7.466;2022-11-25T19:57:46;8.40;90.00
49549;DHT22;35450;44.518;7.466;2022-11-25T20:00:50;8.30;90.30
49549;DHT22;35450;44.518;7.466;2022-11-25T20:03:55;8.30;90.70
49549;DHT22;35450;44.518;7.466;2022-11-25T20:07:01;8.20;90.80
49549;DHT22;35450;44.518;7.466;2022-11-25T20:10:21;8.30;91.00
49549;DHT22;35450;44.518;7.466;2022-11-25T20:13:25;8.30;90.50
49549;DHT22;35450;44.518;7.466;2022-11-25T20:16:35;8.30;90.00
49549;DHT22;35450;44.518;7.466;2022-11-25T20:19:39;8.30;90.10
49549;DHT22;35450;44.518;7.466;2022-11-25T20:25:56;8.30;89.20
49549;DHT22;35450;44.518;7.466;2022-11-25T20:29:00;8.40;88.20
49549;DHT22;35450;44.518;7.466;2022-11-25T20:32:24;8.30;87.70
49549;DHT22;35450;44.518;7.466;2022-11-25T20:35:28;8.40;87.20
49549;DHT22;35450;44.518;7.466;2022-11-25T20:38:34;8.50;86.70
49549;DHT22;35450;44.518;7.466;2022-11-25T20:41:38;8.50;86.30
49549;DHT22;35450;44.518;7.466;2022-11-25T20:44:42;8.40;86.60
49549;DHT22;35450;44.518;7.466;2022-11-25T20:47:47;8.40;86.40
49549;DHT22;35450;44.518;7.466;2022-11-25T20:50:59;8.50;86.50
49549;DHT22;35450;44.518;7.466;2022-11-25T20:54:08;8.40;86.70
49549;DHT22;35450;44.518;7.466;2022-11-25T20:57:14;8.40;86.40
49549;DHT22;35450;44.518;7.466;2022-11-25T21:00:23;8.40;86.20
49549;DHT22;35450;44.518;7.466;2022-11-25T21:03:27;8.50;86.10
49549;DHT22;35450;44.518;7.466;2022-11-25T21:06:32;8.40;86.30
49549;DHT22;35450;44.518;7.466;2022-11-25T21:09:37;8.40;86.30
49549;DHT22;35450;44.518;7.466;2022-11-25T21:12:41;8.40;86.30
49549;DHT22;35450;44.518;7.466;2022-11-25T21:15:46;8.30;86.50
49549;DHT22;35450;44.518;7.466;2022-11-25T21:18:51;8.40;86.50
49549;DHT22;35450;44.518;7.466;2022-11-25T21:21:55;8.40;86.50
49549;DHT22;35450;44.518;7.466;2022-11-25T21:24:59;8.40;86.70
49549;DHT22;35450;44.518;7.466;2022-11-25T21:28:04;8.50;86.70
49549;DHT22;35450;44.518;7.466;2022-11-25T21:31:16;8.50;86.70
49549;DHT22;35450;44.518;7.466;2022-11-25T21:34:20;8.40;87.10
49549;DHT22;35450;44.518;7.466;2022-11-25T21:37:30;8.50;87.30
49549;DHT22;35450;44.518;7.466;2022-11-25T21:40:44;8.40;87.40
49549;DHT22;35450;44.518;7.466;2022-11-25T21:43:49;8.40;87.10
49549;DHT22;35450;44.518;7.466;2022-11-25T21:46:53;8.50;87.10
49549;DHT22;35450;44.518;7.466;2022-11-25T21:49:57;8.50;86.80
49549;DHT22;35450;44.518;7.466;2022-11-25T21:53:01;8.50;86.80
49549;DHT22;35450;44.518;7.466;2022-11-25T21:56:27;8.40;86.90
49549;DHT22;35450;44.518;7.466;2022-11-25T21:59:33;8.30;87.20
49549;DHT22;35450;44.518;7.466;2022-11-25T22:02:37;8.30;87.50
49549;DHT22;35450;44.518;7.466;2022-11-25T22:05:41;8.20;87.80